createdAt,value
2022-12-05T00:02:02.999Z,22.92
2022-12-05T00:04:31.736Z,22.10
2022-12-05T00:06:59.957Z,20.75
2022-12-05T00:09:29.385Z,21.27
2022-12-05T00:11:57.866Z,22.10
2022-12-05T00:14:26.364Z,22.10
2022-12-05T00:16:54.462Z,21.52
2022-12-05T00:19:23.179Z,24.23
2022-12-05T00:21:51.215Z,22.85
2022-12-05T00:24:20.445Z,21.40
2022-12-05T00:26:48.437Z,21.10
2022-12-05T00:29:17.661Z,22.02
2022-12-05T00:31:45.803Z,22.45
2022-12-05T00:34:14.504Z,20.98
2022-12-05T00:36:42.677Z,20.92
2022-12-05T00:39:14.654Z,21.25
2022-12-05T00:41:44.065Z,20.33
2022-12-05T00:44:13.948Z,22.92
2022-12-05T00:46:42.295Z,21.08
2022-12-05T00:49:12.186Z,20.92
2022-12-05T00:51:42.774Z,22.60
2022-12-05T00:54:14.331Z,20.98
2022-12-05T00:56:42.950Z,22.15
2022-12-05T00:59:18.800Z,22.30
2022-12-05T01:01:48.549Z,19.95
2022-12-05T01:04:23.239Z,14.32
2022-12-05T01:06:54.654Z,20.67
2022-12-05T01:09:23.687Z,20.65
2022-12-05T01:11:52.434Z,21.27
2022-12-05T01:14:23.761Z,20.92
2022-12-05T01:19:28.226Z,19.33
2022-12-05T01:21:58.786Z,20.95
2022-12-05T01:24:29.779Z,21.45
2022-12-05T01:26:59.075Z,20.80
2022-12-05T01:29:27.599Z,21.27
2022-12-05T01:31:56.004Z,21.98
2022-12-05T01:34:24.458Z,23.23
2022-12-05T01:36:53.129Z,21.50
2022-12-05T01:39:21.501Z,22.17
2022-12-05T01:41:50.493Z,20.40
2022-12-05T01:44:18.794Z,22.40
2022-12-05T01:46:52.095Z,22.88
2022-12-05T01:49:28.303Z,20.23
2022-12-05T01:52:01.344Z,21.27
2022-12-05T01:54:30.357Z,21.65
2022-12-05T01:57:06.015Z,21.15
2022-12-05T01:59:37.432Z,20.08
2022-12-05T02:02:05.869Z,20.85
2022-12-05T02:04:40.665Z,20.70
2022-12-05T02:07:08.694Z,20.20
2022-12-05T02:09:37.252Z,21.88
2022-12-05T02:12:05.738Z,19.38
2022-12-05T02:14:47.456Z,20.58
2022-12-05T02:17:36.449Z,20.55
2022-12-05T02:20:30.128Z,19.25
2022-12-05T02:23:30.553Z,18.20
2022-12-05T02:26:13.967Z,18.35
2022-12-05T02:29:05.541Z,19.38
2022-12-05T02:32:05.370Z,20.08
2022-12-05T02:34:51.018Z,19.88
2022-12-05T02:37:29.765Z,19.30
2022-12-05T02:40:14.407Z,20.52
2022-12-05T02:43:04.296Z,22.05
2022-12-05T02:45:36.215Z,20.52
2022-12-05T02:48:06.561Z,21.50
2022-12-05T02:50:38.578Z,20.60
2022-12-05T02:53:13.244Z,20.75
2022-12-05T02:55:42.403Z,20.35
2022-12-05T02:58:44.267Z,20.67
2022-12-05T03:01:13.200Z,21.40
2022-12-05T03:03:41.806Z,19.73
2022-12-05T03:06:39.482Z,19.35
2022-12-05T03:09:13.491Z,20.63
2022-12-05T03:11:47.901Z,19.13
2022-12-05T03:14:29.189Z,22.63
2022-12-05T03:19:35.753Z,19.75
2022-12-05T03:22:11.697Z,19.52
2022-12-05T03:24:42.066Z,21.38
2022-12-05T03:27:44.804Z,18.50
2022-12-05T03:30:16.571Z,20.80
2022-12-05T03:32:59.675Z,20.23
2022-12-05T03:35:56.396Z,20.45
2022-12-05T03:38:54.547Z,22.02
2022-12-05T03:41:44.227Z,19.15
2022-12-05T03:44:34.379Z,19.85
2022-12-05T03:47:28.847Z,20.15
2022-12-05T03:50:01.524Z,20.17
2022-12-05T03:52:51.247Z,20.92
2022-12-05T03:55:28.181Z,21.88
2022-12-05T03:58:05.018Z,21.48
2022-12-05T04:00:36.628Z,20.25
2022-12-05T04:03:11.088Z,21.02
2022-12-05T04:05:52.166Z,20.63
2022-12-05T04:08:31.320Z,18.83
2022-12-05T04:11:03.937Z,19.92
2022-12-05T04:13:44.018Z,20.00
2022-12-05T04:16:38.368Z,19.75
2022-12-05T04:20:07.491Z,19.35
2022-12-05T04:22:36.714Z,20.88
2022-12-05T04:25:28.281Z,20.58
2022-12-05T04:28:21.697Z,18.65
2022-12-05T04:31:22.323Z,20.15
2022-12-05T04:34:00.899Z,20.40
2022-12-05T04:37:19.852Z,19.88
2022-12-05T04:40:03.270Z,19.23
2022-12-05T04:42:34.703Z,19.67
2022-12-05T04:45:08.572Z,20.17
2022-12-05T04:47:48.936Z,19.25
2022-12-05T04:50:18.246Z,19.47
2022-12-05T04:52:51.694Z,19.80
2022-12-05T04:55:28.437Z,18.30
2022-12-05T04:58:05.078Z,18.38
2022-12-05T05:00:45.498Z,21.77
2022-12-05T05:03:34.057Z,24.77
2022-12-05T05:06:03.128Z,20.40
2022-12-05T05:08:31.836Z,19.58
2022-12-05T05:11:32.168Z,18.15
2022-12-05T05:14:02.669Z,16.65
2022-12-05T05:16:33.872Z,17.13
2022-12-05T05:19:02.706Z,18.20
2022-12-05T05:21:33.420Z,18.92
2022-12-05T05:24:02.710Z,18.08
2022-12-05T05:26:33.707Z,18.00
2022-12-05T05:29:02.779Z,17.63
2022-12-05T05:31:31.194Z,17.25
2022-12-05T05:34:04.573Z,18.52
2022-12-05T05:36:38.085Z,18.15
2022-12-05T05:39:10.633Z,18.80
2022-12-05T05:41:38.601Z,17.58
2022-12-05T05:44:07.144Z,19.55
2022-12-05T05:46:35.939Z,17.35
2022-12-05T05:49:05.016Z,18.23
2022-12-05T05:51:33.435Z,18.48
2022-12-05T05:54:01.917Z,18.70
2022-12-05T05:56:30.262Z,19.30
2022-12-05T05:59:03.192Z,18.08
2022-12-05T06:01:32.049Z,17.02
2022-12-05T06:04:00.672Z,19.10
2022-12-05T06:06:28.870Z,18.23
2022-12-05T06:08:57.473Z,18.10
2022-12-05T06:11:27.830Z,18.38
2022-12-05T06:13:58.205Z,18.45
2022-12-05T06:16:26.321Z,19.40
2022-12-05T06:18:54.782Z,18.65
2022-12-05T06:21:23.385Z,18.13
2022-12-05T06:23:52.060Z,19.17
2022-12-05T06:26:21.829Z,18.90
2022-12-05T06:28:50.687Z,19.67
2022-12-05T06:31:23.169Z,24.58
2022-12-05T06:33:51.621Z,27.00
2022-12-05T06:36:22.523Z,23.90
2022-12-05T06:38:50.952Z,20.40
2022-12-05T06:41:20.585Z,20.05
2022-12-05T06:43:49.222Z,14.48
2022-12-05T06:46:17.386Z,18.75
2022-12-05T06:48:45.984Z,19.70
2022-12-05T06:51:16.236Z,20.20
2022-12-05T06:53:45.238Z,20.48
2022-12-05T06:56:15.739Z,20.05
2022-12-05T07:01:37.750Z,19.90
2022-12-05T07:04:09.018Z,17.58
2022-12-05T07:06:38.439Z,20.55
2022-12-05T07:09:08.783Z,21.25
2022-12-05T07:11:37.004Z,20.50
2022-12-05T07:14:10.651Z,18.58
2022-12-05T07:16:47.305Z,18.42
2022-12-05T07:19:15.794Z,23.73
2022-12-05T07:21:43.819Z,20.70
2022-12-05T07:24:12.154Z,21.98
2022-12-05T07:26:40.287Z,20.52
2022-12-05T07:29:08.618Z,18.02
2022-12-05T07:31:37.321Z,20.98
2022-12-05T07:34:05.749Z,20.48
2022-12-05T07:36:34.389Z,19.33
2022-12-05T07:39:02.977Z,19.00
2022-12-05T07:41:33.237Z,18.33
2022-12-05T07:44:08.464Z,24.70
2022-12-05T07:46:36.445Z,20.23
2022-12-05T07:49:04.932Z,19.63
2022-12-05T07:51:33.992Z,19.98
2022-12-05T07:54:02.795Z,20.40
2022-12-05T07:56:31.017Z,23.15
2022-12-05T07:58:59.686Z,19.88
2022-12-05T08:01:30.120Z,18.35
2022-12-05T08:04:01.089Z,21.67
2022-12-05T08:06:31.584Z,18.17
2022-12-05T08:11:31.254Z,17.55
2022-12-05T08:13:59.814Z,17.58
2022-12-05T08:16:30.315Z,18.45
2022-12-05T08:19:04.826Z,19.85
2022-12-05T08:21:34.873Z,17.58
2022-12-05T08:24:05.988Z,17.05
2022-12-05T08:26:36.324Z,17.40
2022-12-05T08:31:37.007Z,16.08
2022-12-05T08:34:05.387Z,18.50
2022-12-05T08:36:34.070Z,18.38
2022-12-05T08:39:05.731Z,19.30
2022-12-05T08:41:34.189Z,18.75
2022-12-05T08:44:05.781Z,17.42
2022-12-05T08:46:36.444Z,17.88
2022-12-05T08:49:06.875Z,19.13
2022-12-05T08:51:35.578Z,18.17
2022-12-05T08:54:05.683Z,17.95
2022-12-05T08:56:34.079Z,17.83
2022-12-05T08:59:05.546Z,18.48
2022-12-05T09:01:37.342Z,18.48
2022-12-05T09:04:06.421Z,17.90
2022-12-05T09:06:35.205Z,18.35
2022-12-05T09:09:07.092Z,18.38
2022-12-05T09:11:38.006Z,17.75
2022-12-05T09:14:06.786Z,17.52
2022-12-05T09:16:38.750Z,18.70
2022-12-05T09:19:23.827Z,19.25
2022-12-05T09:21:52.019Z,20.95
2022-12-05T09:24:20.587Z,18.77
2022-12-05T09:26:48.562Z,17.40
2022-12-05T09:29:18.164Z,16.08
2022-12-05T09:31:49.061Z,15.10
2022-12-05T09:34:18.772Z,14.90
2022-12-05T09:37:01.336Z,14.23
2022-12-05T09:39:39.025Z,15.95
2022-12-05T09:42:30.025Z,16.80
2022-12-05T09:45:04.669Z,17.80
2022-12-05T09:47:36.211Z,19.38
2022-12-05T09:50:35.696Z,16.90
2022-12-05T09:53:09.727Z,17.05
2022-12-05T09:55:44.005Z,18.55
2022-12-05T09:58:30.782Z,19.65
2022-12-05T10:01:34.705Z,17.58
2022-12-05T10:04:19.271Z,17.02
2022-12-05T10:06:53.783Z,15.38
2022-12-05T10:09:39.902Z,15.95
2022-12-05T10:12:43.774Z,37.17
2022-12-05T10:15:16.296Z,18.90
2022-12-05T10:17:51.784Z,17.48
2022-12-05T10:20:39.452Z,17.10
2022-12-05T10:23:34.645Z,18.02
2022-12-05T10:26:08.244Z,19.63
2022-12-05T10:28:52.672Z,16.35
2022-12-05T10:31:27.065Z,17.35
2022-12-05T10:34:02.902Z,16.88
2022-12-05T10:36:32.043Z,29.48
2022-12-05T10:39:00.474Z,39.85
2022-12-05T10:41:29.342Z,23.55
2022-12-05T10:43:59.458Z,23.05
2022-12-05T10:46:27.627Z,21.15
2022-12-05T10:48:56.198Z,22.70
2022-12-05T10:51:32.484Z,26.75
2022-12-05T10:54:35.816Z,20.37
2022-12-05T10:57:22.425Z,21.35
2022-12-05T10:59:50.897Z,26.10
2022-12-05T11:02:30.265Z,28.98
2022-12-05T11:04:59.938Z,22.45
2022-12-05T11:07:31.296Z,20.70
2022-12-05T11:10:23.543Z,30.08
2022-12-05T11:12:57.368Z,32.83
2022-12-05T11:15:28.862Z,22.42
2022-12-05T11:18:17.731Z,22.30
2022-12-05T11:20:46.360Z,19.17
2022-12-05T11:23:32.810Z,19.85
2022-12-05T11:26:02.173Z,19.65
2022-12-05T11:28:37.465Z,19.23
2022-12-05T11:31:15.184Z,32.65
2022-12-05T11:33:43.539Z,18.83
2022-12-05T11:36:48.401Z,19.10
2022-12-05T11:39:16.905Z,18.00
2022-12-05T11:41:54.302Z,19.60
2022-12-05T11:44:29.722Z,22.38
2022-12-05T11:47:03.996Z,20.13
2022-12-05T11:49:34.789Z,17.70
2022-12-05T11:52:29.146Z,17.52
2022-12-05T11:55:27.004Z,20.55
2022-12-05T11:58:04.658Z,19.20
2022-12-05T12:00:36.246Z,22.13
2022-12-05T12:03:38.594Z,23.17
2022-12-05T12:06:44.002Z,21.58
2022-12-05T12:09:18.114Z,19.38
2022-12-05T12:12:09.976Z,20.05
2022-12-05T12:14:55.524Z,21.92
2022-12-05T12:17:49.518Z,19.30
2022-12-05T12:20:42.954Z,22.58
2022-12-05T12:23:34.062Z,20.90
2022-12-05T12:26:11.387Z,21.35
2022-12-05T12:28:52.132Z,22.15
2022-12-05T12:34:31.404Z,22.92
2022-12-05T12:37:30.961Z,20.52
2022-12-05T12:40:05.245Z,21.70
2022-12-05T12:42:42.476Z,21.77
2022-12-05T12:45:13.596Z,20.30
2022-12-05T12:48:02.767Z,19.88
2022-12-05T12:50:43.431Z,21.33
2022-12-05T12:53:50.130Z,22.35
2022-12-05T12:56:41.409Z,21.25
2022-12-05T12:59:34.412Z,24.67
2022-12-05T13:02:10.664Z,25.00
2022-12-05T13:04:54.948Z,33.05
2022-12-05T13:07:46.148Z,29.40
2022-12-05T13:10:36.471Z,28.42
2022-12-05T13:13:07.146Z,23.40
2022-12-05T13:15:44.989Z,22.70
2022-12-05T13:18:19.905Z,22.40
2022-12-05T13:20:55.580Z,22.23
2022-12-05T13:23:29.891Z,23.67
2022-12-05T13:26:08.179Z,24.65
2022-12-05T13:28:58.659Z,23.95
2022-12-05T13:34:06.189Z,23.88
2022-12-05T13:37:00.437Z,21.58
2022-12-05T13:39:46.898Z,20.95
2022-12-05T13:42:24.912Z,22.38
2022-12-05T13:45:20.557Z,23.45
2022-12-05T13:48:01.117Z,23.10
2022-12-05T13:50:49.747Z,20.90
2022-12-05T13:53:24.359Z,27.10
2022-12-05T13:56:12.616Z,23.92
2022-12-05T13:58:51.233Z,21.50
2022-12-05T14:01:26.435Z,24.85
2022-12-05T14:04:00.913Z,26.23
2022-12-05T14:06:40.888Z,40.92
2022-12-05T14:09:18.745Z,35.97
2022-12-05T14:12:12.501Z,26.23
2022-12-05T14:14:56.252Z,24.50
2022-12-05T14:17:31.755Z,24.80
2022-12-05T14:20:23.384Z,27.27
2022-12-05T14:23:08.010Z,35.03
2022-12-05T14:26:03.150Z,31.02
2022-12-05T14:28:35.428Z,31.33
2022-12-05T14:31:22.213Z,27.83
2022-12-05T14:34:25.332Z,28.85
2022-12-05T14:36:59.401Z,35.97
2022-12-05T14:39:39.586Z,34.25
2022-12-05T14:42:35.853Z,26.23
2022-12-05T14:45:39.529Z,28.08
2022-12-05T14:48:14.212Z,32.75
2022-12-05T14:50:46.963Z,26.67
2022-12-05T14:53:21.260Z,28.20
2022-12-05T14:56:02.522Z,29.88
2022-12-05T14:59:05.814Z,27.88
2022-12-05T15:01:44.218Z,31.30
2022-12-05T15:04:12.784Z,28.42
2022-12-05T15:06:49.775Z,23.80
2022-12-05T15:09:56.053Z,38.80
2022-12-05T15:12:42.130Z,27.58
2022-12-05T15:15:20.253Z,25.23
2022-12-05T15:17:58.369Z,25.30
2022-12-05T15:20:47.326Z,22.33
2022-12-05T15:23:45.179Z,27.23
2022-12-05T15:29:21.320Z,23.42
2022-12-05T15:31:57.495Z,22.92
2022-12-05T15:34:37.363Z,23.45
2022-12-05T15:37:08.757Z,23.13
2022-12-05T15:42:37.272Z,24.45
2022-12-05T15:45:16.536Z,34.80
2022-12-05T15:47:50.823Z,22.98
2022-12-05T15:50:27.168Z,23.92
2022-12-05T15:53:05.436Z,28.02
2022-12-05T15:56:08.167Z,25.48
2022-12-05T15:58:43.868Z,24.42
2022-12-05T16:01:23.757Z,25.08
2022-12-05T16:04:04.403Z,25.50
2022-12-05T16:06:36.535Z,31.77
2022-12-05T16:09:13.880Z,26.17
2022-12-05T16:11:55.422Z,23.20
2022-12-05T16:14:58.492Z,27.08
2022-12-05T16:17:18.103Z,32.38
2022-12-05T16:19:46.903Z,27.33
2022-12-05T16:22:15.257Z,26.75
2022-12-05T16:24:48.715Z,24.33
2022-12-05T16:27:29.256Z,24.08
2022-12-05T16:30:13.282Z,34.33
2022-12-05T16:32:42.422Z,26.55
2022-12-05T16:35:31.831Z,25.90
2022-12-05T16:38:32.123Z,27.95
2022-12-05T16:41:06.262Z,25.30
2022-12-05T16:43:34.246Z,25.38
2022-12-05T16:46:28.695Z,25.38
2022-12-05T16:49:34.909Z,34.08
2022-12-05T16:52:03.323Z,28.08
2022-12-05T16:54:31.363Z,28.30
2022-12-05T16:57:01.694Z,28.70
2022-12-05T16:59:35.655Z,24.38
2022-12-05T17:02:08.107Z,25.77
2022-12-05T17:04:36.362Z,28.75
2022-12-05T17:07:04.901Z,28.90
2022-12-05T17:09:33.156Z,37.03
2022-12-05T17:12:24.258Z,39.97
2022-12-05T17:14:52.284Z,32.30
2022-12-05T17:17:21.492Z,34.85
2022-12-05T17:19:49.837Z,34.15
2022-12-05T17:22:18.384Z,34.17
2022-12-05T17:24:46.698Z,28.92
2022-12-05T17:27:15.094Z,26.52
2022-12-05T17:29:43.211Z,24.92
2022-12-05T17:32:11.913Z,27.10
2022-12-05T17:34:39.871Z,28.25
2022-12-05T17:37:08.322Z,29.35
2022-12-05T17:39:36.561Z,31.20
2022-12-05T17:42:05.559Z,32.83
2022-12-05T17:44:33.830Z,32.10
2022-12-05T17:47:07.778Z,27.75
2022-12-05T17:49:36.607Z,28.25
2022-12-05T17:52:22.090Z,28.45
2022-12-05T17:54:50.383Z,32.85
2022-12-05T17:57:18.986Z,31.05
2022-12-05T17:59:47.135Z,31.52
2022-12-05T18:02:17.693Z,37.95
2022-12-05T18:04:46.135Z,32.80
2022-12-05T18:07:14.570Z,29.60
2022-12-05T18:09:43.842Z,31.73
2022-12-05T18:12:12.187Z,34.78
2022-12-05T18:14:40.221Z,31.88
2022-12-05T18:17:08.662Z,27.92
2022-12-05T18:19:36.814Z,27.98
2022-12-05T18:22:05.780Z,25.92
2022-12-05T18:24:33.921Z,28.25
2022-12-05T18:27:02.323Z,28.08
2022-12-05T18:29:30.349Z,26.92
2022-12-05T18:31:58.835Z,38.90
2022-12-05T18:34:27.132Z,35.63
2022-12-05T18:36:56.412Z,35.35
2022-12-05T18:39:24.799Z,30.65
2022-12-05T18:41:53.267Z,58.92
2022-12-05T18:44:21.342Z,60.78
2022-12-05T18:46:49.777Z,67.63
2022-12-05T18:49:17.799Z,44.20
2022-12-05T18:51:46.217Z,44.83
2022-12-05T18:54:14.878Z,53.55
2022-12-05T18:56:46.091Z,38.15
2022-12-05T19:01:45.174Z,38.10
2022-12-05T19:04:15.732Z,32.53
2022-12-05T19:09:20.612Z,25.25
2022-12-05T19:11:55.239Z,28.00
2022-12-05T19:14:24.742Z,24.73
2022-12-05T19:16:59.776Z,24.63
2022-12-05T19:19:29.290Z,22.40
2022-12-05T19:21:59.492Z,22.98
2022-12-05T19:24:27.754Z,24.87
2022-12-05T19:26:56.095Z,26.63
2022-12-05T19:29:24.103Z,23.92
2022-12-05T19:31:53.256Z,29.83
2022-12-05T19:34:22.859Z,30.85
2022-12-05T19:36:51.480Z,27.73
2022-12-05T19:39:23.646Z,28.73
2022-12-05T19:41:52.710Z,31.05
2022-12-05T19:44:21.738Z,40.28
2022-12-05T19:46:50.323Z,48.13
2022-12-05T19:49:30.367Z,36.17
2022-12-05T19:51:58.818Z,29.45
2022-12-05T19:54:27.562Z,30.92
2022-12-05T19:57:00.856Z,41.05
2022-12-05T20:02:07.335Z,25.25
2022-12-05T20:04:35.665Z,24.27
2022-12-05T20:07:04.086Z,28.42
2022-12-05T20:09:32.197Z,32.55
2022-12-05T20:12:04.395Z,27.73
2022-12-05T20:14:37.174Z,39.10
2022-12-05T20:17:05.789Z,31.38
2022-12-05T20:19:33.964Z,26.02
2022-12-05T20:22:02.619Z,31.17
2022-12-05T20:24:34.012Z,29.35
2022-12-05T20:27:02.665Z,33.25
2022-12-05T20:29:30.734Z,32.85
2022-12-05T20:31:59.158Z,35.60
2022-12-05T20:34:27.368Z,30.40
2022-12-05T20:36:55.931Z,27.13
2022-12-05T20:39:25.054Z,23.77
2022-12-05T20:41:53.478Z,24.48
2022-12-05T20:44:21.773Z,23.05
2022-12-05T20:46:51.888Z,21.52
2022-12-05T20:49:20.360Z,20.70
2022-12-05T20:51:49.009Z,21.75
2022-12-05T20:54:18.601Z,21.75
2022-12-05T20:56:47.197Z,21.83
2022-12-05T20:59:15.438Z,20.80
2022-12-05T21:01:44.594Z,24.00
2022-12-05T21:04:13.189Z,26.67
2022-12-05T21:06:46.967Z,22.55
2022-12-05T21:09:15.626Z,21.75
2022-12-05T21:11:45.112Z,23.40
2022-12-05T21:14:13.448Z,23.52
2022-12-05T21:16:44.956Z,22.27
2022-12-05T21:19:13.160Z,22.70
2022-12-05T21:21:41.735Z,18.33
2022-12-05T21:24:10.628Z,19.05
2022-12-05T21:26:40.309Z,20.27
2022-12-05T21:29:08.890Z,20.35
2022-12-05T21:31:41.058Z,20.10
2022-12-05T21:34:15.390Z,19.83
2022-12-05T21:36:45.133Z,23.77
2022-12-05T21:39:13.440Z,21.77
2022-12-05T21:41:42.258Z,20.42
2022-12-05T21:44:10.443Z,20.77
2022-12-05T21:46:39.074Z,21.63
2022-12-05T21:49:07.987Z,20.20
2022-12-05T21:51:36.698Z,20.05
2022-12-05T21:54:05.015Z,18.67
2022-12-05T21:56:34.347Z,17.40
2022-12-05T21:59:02.805Z,18.05
2022-12-05T22:01:31.356Z,17.77
2022-12-05T22:03:59.959Z,17.60
2022-12-05T22:06:34.141Z,17.08
2022-12-05T22:09:02.962Z,17.38
2022-12-05T22:11:31.436Z,18.27
2022-12-05T22:13:59.845Z,18.80
2022-12-05T22:16:33.276Z,18.17
2022-12-05T22:19:02.714Z,19.02
2022-12-05T22:21:34.352Z,17.33
2022-12-05T22:24:02.414Z,18.85
2022-12-05T22:26:31.363Z,17.77
2022-12-05T22:28:59.657Z,17.65
2022-12-05T22:31:28.164Z,16.15
2022-12-05T22:33:56.359Z,17.25
2022-12-05T22:36:25.562Z,17.67
2022-12-05T22:38:53.669Z,16.90
2022-12-05T22:41:25.367Z,18.92
2022-12-05T22:43:59.755Z,17.73
2022-12-05T22:46:29.192Z,18.00
2022-12-05T22:48:57.856Z,16.90
2022-12-05T22:51:27.973Z,17.02
2022-12-05T22:53:56.512Z,17.25
2022-12-05T22:56:27.166Z,17.23
2022-12-05T22:58:57.265Z,17.42
2022-12-05T23:01:31.695Z,18.10
2022-12-05T23:04:02.412Z,16.25
2022-12-05T23:06:33.195Z,17.70
2022-12-05T23:09:02.180Z,17.23
2022-12-05T23:11:31.293Z,16.67
2022-12-05T23:14:02.868Z,16.45
2022-12-05T23:16:32.961Z,20.88
2022-12-05T23:19:04.067Z,18.35
2022-12-05T23:21:38.975Z,19.13
2022-12-05T23:24:12.607Z,17.23
2022-12-05T23:26:46.422Z,17.17
2022-12-05T23:29:15.379Z,17.65
2022-12-05T23:31:44.222Z,17.52
2022-12-05T23:34:12.803Z,17.80
2022-12-05T23:36:41.526Z,18.33
2022-12-05T23:39:09.819Z,17.45
2022-12-05T23:41:38.462Z,17.92
2022-12-05T23:44:06.663Z,18.30
2022-12-05T23:46:35.608Z,21.67
2022-12-05T23:49:04.435Z,21.92
2022-12-05T23:51:34.271Z,21.13
2022-12-05T23:54:03.028Z,24.33
2022-12-05T23:56:33.940Z,23.05
2022-12-05T23:59:04.152Z,21.50
